SKW1246 KPHX-KSAF
Flight info
| Callsign | SKW1246 |
|---|---|
| Flight time | N/A |
| Altitude | 33000 |
| Route | FORPE1 ABQ |
| Aircraft | CRJ7/M-SDFGIRWY/S |
Departure
| Time | 2026-05-04 02:17 |
|---|---|
| Airport | Phoenix Sky Harbor International Airport (KPHX) |
Arrival
| Time | N/A |
|---|---|
| Airport | Santa Fe Municipal Airport (KSAF) |
| Time | Latitude | Longitude | Altitude | Speed | Heading |
|---|---|---|---|---|---|
| 2026-05-04 01:43 | 33.43701 | -111.99492 | 1120 ft | 0 kts | 89° |
| 2026-05-04 02:03 | 33.43702 | -111.99519 | 1119 ft | 4 kts | 95° |
| 2026-05-04 02:03 | 33.43700 | -111.99546 | 1122 ft | 4 kts | 51° |
| 2026-05-04 02:03 | 33.43696 | -111.99549 | 1121 ft | 1 kts | 0° |
| 2026-05-04 02:03 | 33.43695 | -111.99549 | 1120 ft | 0 kts | 0° |
| 2026-05-04 02:08 | 33.43696 | -111.99549 | 1122 ft | 0 kts | 0° |
| 2026-05-04 02:08 | 33.43717 | -111.99545 | 1119 ft | 5 kts | 12° |
| 2026-05-04 02:08 | 33.43768 | -111.99535 | 1118 ft | 10 kts | 6° |
| 2026-05-04 02:09 | 33.43854 | -111.99536 | 1118 ft | 14 kts | 356° |
| 2026-05-04 02:09 | 33.43902 | -111.99544 | 1124 ft | 6 kts | 351° |
| 2026-05-04 02:09 | 33.43919 | -111.99544 | 1121 ft | 1 kts | 36° |
| 2026-05-04 02:09 | 33.43920 | -111.99529 | 1122 ft | 4 kts | 104° |
| 2026-05-04 02:10 | 33.43904 | -111.99440 | 1122 ft | 16 kts | 92° |
| 2026-05-04 02:10 | 33.43901 | -111.99303 | 1124 ft | 15 kts | 91° |
| 2026-05-04 02:10 | 33.43834 | -111.99225 | 1116 ft | 18 kts | 180° |
| 2026-05-04 02:10 | 33.43701 | -111.99226 | 1118 ft | 21 kts | 180° |
| 2026-05-04 02:11 | 33.43556 | -111.99227 | 1121 ft | 19 kts | 180° |
| 2026-05-04 02:11 | 33.43425 | -111.99242 | 1117 ft | 19 kts | 189° |
| 2026-05-04 02:11 | 33.43304 | -111.99246 | 1118 ft | 11 kts | 180° |
| 2026-05-04 02:11 | 33.43256 | -111.99246 | 1119 ft | 0 kts | 181° |
| 2026-05-04 02:13 | 33.43243 | -111.99247 | 1121 ft | 5 kts | 188° |
| 2026-05-04 02:13 | 33.43202 | -111.99270 | 1120 ft | 7 kts | 219° |
| 2026-05-04 02:13 | 33.43198 | -111.99273 | 1117 ft | 0 kts | 220° |
| 2026-05-04 02:15 | 33.43175 | -111.99297 | 1126 ft | 7 kts | 223° |
| 2026-05-04 02:15 | 33.43144 | -111.99333 | 1134 ft | 6 kts | 223° |
| 2026-05-04 02:16 | 33.43107 | -111.99382 | 1132 ft | 11 kts | 247° |
| 2026-05-04 02:16 | 33.43103 | -111.99413 | 1130 ft | 0 kts | 269° |
| 2026-05-04 02:16 | 33.43103 | -111.99419 | 1130 ft | 3 kts | 269° |
| 2026-05-04 02:16 | 33.43103 | -111.99627 | 1131 ft | 61 kts | 270° |
| 2026-05-04 02:17 | 33.43103 | -112.00435 | 1129 ft | 130 kts | 270° |
| 2026-05-04 02:17 | 33.43111 | -112.01700 | 1418 ft | 161 kts | 271° |
| 2026-05-04 02:17 | 33.43163 | -112.03044 | 2168 ft | 169 kts | 268° |
| 2026-05-04 02:17 | 33.43257 | -112.04469 | 2987 ft | 167 kts | 269° |
| 2026-05-04 02:18 | 33.43363 | -112.05834 | 3883 ft | 168 kts | 266° |
| 2026-05-04 02:18 | 33.43352 | -112.07346 | 4308 ft | 199 kts | 263° |
| 2026-05-04 02:18 | 33.43277 | -112.09199 | 4557 ft | 243 kts | 264° |
| 2026-05-04 02:18 | 33.43241 | -112.11176 | 4800 ft | 237 kts | 267° |
| 2026-05-04 02:19 | 33.43292 | -112.13181 | 4937 ft | 245 kts | 269° |
| 2026-05-04 02:19 | 33.43373 | -112.15208 | 5109 ft | 247 kts | 269° |
| 2026-05-04 02:19 | 33.43667 | -112.17248 | 5329 ft | 258 kts | 291° |
| 2026-05-04 02:19 | 33.44924 | -112.18862 | 5567 ft | 281 kts | 326° |
| 2026-05-04 02:20 | 33.46814 | -112.19692 | 5885 ft | 297 kts | 344° |
| 2026-05-04 02:20 | 33.48870 | -112.19923 | 6328 ft | 296 kts | 356° |
| 2026-05-04 02:20 | 33.50927 | -112.19882 | 6749 ft | 295 kts | 0° |
| 2026-05-04 02:20 | 33.52997 | -112.19772 | 7166 ft | 301 kts | 4° |
| 2026-05-04 02:21 | 33.55047 | -112.19295 | 7781 ft | 301 kts | 14° |
| 2026-05-04 02:21 | 33.57072 | -112.18607 | 8381 ft | 303 kts | 16° |
| 2026-05-04 02:21 | 33.59127 | -112.17895 | 8990 ft | 315 kts | 16° |
| 2026-05-04 02:21 | 33.61258 | -112.17103 | 9660 ft | 325 kts | 25° |
| 2026-05-04 02:22 | 33.63050 | -112.15552 | 10246 ft | 311 kts | 47° |
| 2026-05-04 02:22 | 33.64488 | -112.13695 | 10813 ft | 298 kts | 51° |
| 2026-05-04 02:22 | 33.65860 | -112.11750 | 11388 ft | 314 kts | 52° |
| 2026-05-04 02:22 | 33.67308 | -112.09731 | 11983 ft | 332 kts | 50° |
| 2026-05-04 02:23 | 33.68906 | -112.07629 | 12603 ft | 349 kts | 49° |
| 2026-05-04 02:23 | 33.70621 | -112.05467 | 13238 ft | 362 kts | 48° |
| 2026-05-04 02:23 | 33.72368 | -112.03255 | 13858 ft | 367 kts | 49° |
| 2026-05-04 02:23 | 33.74020 | -112.00905 | 14420 ft | 369 kts | 62° |
| 2026-05-04 02:24 | 33.74817 | -111.98022 | 15008 ft | 364 kts | 89° |
| 2026-05-04 02:24 | 33.74765 | -111.95005 | 15607 ft | 362 kts | 100° |
| 2026-05-04 02:24 | 33.74443 | -111.91999 | 16225 ft | 364 kts | 103° |
| 2026-05-04 02:24 | 33.74073 | -111.88975 | 16822 ft | 368 kts | 103° |
| 2026-05-04 02:25 | 33.73722 | -111.85889 | 17447 ft | 378 kts | 101° |
| 2026-05-04 02:25 | 33.73435 | -111.82711 | 18051 ft | 388 kts | 99° |
| 2026-05-04 02:25 | 33.73181 | -111.79475 | 18483 ft | 400 kts | 99° |
| 2026-05-04 02:25 | 33.72904 | -111.76106 | 18919 ft | 410 kts | 99° |
| 2026-05-04 02:26 | 33.72615 | -111.72656 | 19369 ft | 420 kts | 99° |
| 2026-05-04 02:26 | 33.72318 | -111.69130 | 19819 ft | 429 kts | 99° |
| 2026-05-04 02:26 | 33.72014 | -111.65526 | 20279 ft | 437 kts | 98° |
| 2026-05-04 02:26 | 33.71702 | -111.61838 | 20568 ft | 451 kts | 98° |
| 2026-05-04 02:27 | 33.71376 | -111.58019 | 20617 ft | 464 kts | 98° |
| 2026-05-04 02:27 | 33.71049 | -111.54181 | 20593 ft | 460 kts | 98° |
| 2026-05-04 02:27 | 33.70723 | -111.50415 | 20848 ft | 447 kts | 98° |
| 2026-05-04 02:27 | 33.70410 | -111.46719 | 21281 ft | 442 kts | 98° |
| 2026-05-04 02:28 | 33.70089 | -111.43070 | 21723 ft | 437 kts | 98° |
| 2026-05-04 02:28 | 33.69773 | -111.39463 | 22178 ft | 433 kts | 98° |
| 2026-05-04 02:28 | 33.69459 | -111.35836 | 22630 ft | 440 kts | 98° |
| 2026-05-04 02:28 | 33.69140 | -111.32149 | 23087 ft | 447 kts | 98° |